sensor_id;sensor_type;location;lat;lon;timestamp;P1;durP1;ratioP1;P2;durP2;ratioP2
15449;SDS011;7826;49.784;9.934;2022-09-01T00:01:25;1.70;;;1.60;;
15449;SDS011;7826;49.784;9.934;2022-09-01T00:03:53;1.73;;;1.63;;
15449;SDS011;7826;49.784;9.934;2022-09-01T00:06:21;1.70;;;1.60;;
15449;SDS011;7826;49.784;9.934;2022-09-01T00:08:49;1.87;;;1.70;;
15449;SDS011;7826;49.784;9.934;2022-09-01T00:11:20;1.90;;;1.80;;
15449;SDS011;7826;49.784;9.934;2022-09-01T00:13:51;1.77;;;1.67;;
15449;SDS011;7826;49.784;9.934;2022-09-01T00:16:19;1.60;;;1.50;;
15449;SDS011;7826;49.784;9.934;2022-09-01T00:18:47;1.70;;;1.60;;
15449;SDS011;7826;49.784;9.934;2022-09-01T00:21:16;1.70;;;1.60;;
15449;SDS011;7826;49.784;9.934;2022-09-01T00:23:44;1.87;;;1.77;;
15449;SDS011;7826;49.784;9.934;2022-09-01T00:26:11;1.70;;;1.60;;
15449;SDS011;7826;49.784;9.934;2022-09-01T00:28:38;1.50;;;1.50;;
15449;SDS011;7826;49.784;9.934;2022-09-01T00:31:04;1.70;;;1.60;;
15449;SDS011;7826;49.784;9.934;2022-09-01T00:33:33;1.73;;;1.63;;
15449;SDS011;7826;49.784;9.934;2022-09-01T00:36:00;2.27;;;1.80;;
15449;SDS011;7826;49.784;9.934;2022-09-01T00:38:27;1.70;;;1.60;;
15449;SDS011;7826;49.784;9.934;2022-09-01T00:40:53;1.77;;;1.67;;
15449;SDS011;7826;49.784;9.934;2022-09-01T00:43:21;1.93;;;1.50;;
15449;SDS011;7826;49.784;9.934;2022-09-01T00:46:02;1.70;;;1.60;;
15449;SDS011;7826;49.784;9.934;2022-09-01T00:48:30;2.93;;;1.73;;
15449;SDS011;7826;49.784;9.934;2022-09-01T00:50:58;1.83;;;1.73;;
15449;SDS011;7826;49.784;9.934;2022-09-01T00:53:25;1.60;;;1.50;;
15449;SDS011;7826;49.784;9.934;2022-09-01T00:55:52;1.50;;;1.40;;
15449;SDS011;7826;49.784;9.934;2022-09-01T00:58:18;1.63;;;1.53;;
15449;SDS011;7826;49.784;9.934;2022-09-01T01:00:45;1.60;;;1.50;;
15449;SDS011;7826;49.784;9.934;2022-09-01T01:03:14;1.57;;;1.47;;
15449;SDS011;7826;49.784;9.934;2022-09-01T01:05:46;2.03;;;1.80;;
15449;SDS011;7826;49.784;9.934;2022-09-01T01:08:23;1.70;;;1.60;;
15449;SDS011;7826;49.784;9.934;2022-09-01T01:11:03;3.53;;;1.90;;
15449;SDS011;7826;49.784;9.934;2022-09-01T01:13:31;1.73;;;1.60;;
15449;SDS011;7826;49.784;9.934;2022-09-01T01:16:14;1.90;;;1.80;;
15449;SDS011;7826;49.784;9.934;2022-09-01T01:18:41;1.60;;;1.50;;
15449;SDS011;7826;49.784;9.934;2022-09-01T01:21:09;1.73;;;1.63;;
15449;SDS011;7826;49.784;9.934;2022-09-01T01:24:04;1.83;;;1.73;;
15449;SDS011;7826;49.784;9.934;2022-09-01T01:26:47;1.67;;;1.57;;
15449;SDS011;7826;49.784;9.934;2022-09-01T01:29:15;1.80;;;1.70;;
15449;SDS011;7826;49.784;9.934;2022-09-01T01:31:42;1.30;;;1.30;;
15449;SDS011;7826;49.784;9.934;2022-09-01T01:34:08;1.90;;;1.70;;
15449;SDS011;7826;49.784;9.934;2022-09-01T01:36:36;1.43;;;1.33;;
15449;SDS011;7826;49.784;9.934;2022-09-01T01:39:09;1.83;;;1.73;;
15449;SDS011;7826;49.784;9.934;2022-09-01T01:41:38;2.07;;;1.97;;
15449;SDS011;7826;49.784;9.934;2022-09-01T01:44:09;4.10;;;2.67;;
15449;SDS011;7826;49.784;9.934;2022-09-01T01:46:42;6.33;;;2.20;;
15449;SDS011;7826;49.784;9.934;2022-09-01T01:49:15;1.93;;;1.80;;
15449;SDS011;7826;49.784;9.934;2022-09-01T01:51:45;3.07;;;1.90;;
15449;SDS011;7826;49.784;9.934;2022-09-01T01:54:13;1.77;;;1.67;;
15449;SDS011;7826;49.784;9.934;2022-09-01T01:56:41;2.50;;;1.80;;
15449;SDS011;7826;49.784;9.934;2022-09-01T01:59:08;2.40;;;1.90;;
15449;SDS011;7826;49.784;9.934;2022-09-01T02:01:40;1.90;;;1.67;;
15449;SDS011;7826;49.784;9.934;2022-09-01T02:04:09;2.20;;;1.80;;
15449;SDS011;7826;49.784;9.934;2022-09-01T02:06:36;1.87;;;1.70;;
15449;SDS011;7826;49.784;9.934;2022-09-01T02:09:06;1.87;;;1.73;;
15449;SDS011;7826;49.784;9.934;2022-09-01T02:11:32;2.10;;;1.90;;
15449;SDS011;7826;49.784;9.934;2022-09-01T02:14:02;1.83;;;1.73;;
15449;SDS011;7826;49.784;9.934;2022-09-01T02:16:32;1.87;;;1.77;;
15449;SDS011;7826;49.784;9.934;2022-09-01T02:18:59;1.90;;;1.80;;
15449;SDS011;7826;49.784;9.934;2022-09-01T02:21:27;2.10;;;1.90;;
15449;SDS011;7826;49.784;9.934;2022-09-01T02:23:58;2.17;;;2.07;;
15449;SDS011;7826;49.784;9.934;2022-09-01T02:26:27;1.90;;;1.80;;
15449;SDS011;7826;49.784;9.934;2022-09-01T02:29:01;1.80;;;1.70;;
15449;SDS011;7826;49.784;9.934;2022-09-01T02:31:33;1.80;;;1.70;;
15449;SDS011;7826;49.784;9.934;2022-09-01T02:34:07;1.83;;;1.73;;
15449;SDS011;7826;49.784;9.934;2022-09-01T02:36:39;1.90;;;1.80;;
15449;SDS011;7826;49.784;9.934;2022-09-01T02:39:13;2.23;;;2.03;;
15449;SDS011;7826;49.784;9.934;2022-09-01T02:41:44;1.90;;;1.80;;
15449;SDS011;7826;49.784;9.934;2022-09-01T02:44:11;2.20;;;2.00;;
15449;SDS011;7826;49.784;9.934;2022-09-01T02:46:43;2.10;;;1.90;;
15449;SDS011;7826;49.784;9.934;2022-09-01T02:49:12;2.30;;;2.10;;
15449;SDS011;7826;49.784;9.934;2022-09-01T02:51:42;2.10;;;1.90;;
15449;SDS011;7826;49.784;9.934;2022-09-01T02:54:11;2.53;;;1.97;;
15449;SDS011;7826;49.784;9.934;2022-09-01T02:56:42;1.80;;;1.70;;
15449;SDS011;7826;49.784;9.934;2022-09-01T02:59:16;2.13;;;1.93;;
15449;SDS011;7826;49.784;9.934;2022-09-01T03:01:47;2.17;;;1.90;;
15449;SDS011;7826;49.784;9.934;2022-09-01T03:04:15;2.53;;;1.80;;
15449;SDS011;7826;49.784;9.934;2022-09-01T03:06:42;2.57;;;2.03;;
15449;SDS011;7826;49.784;9.934;2022-09-01T03:09:27;2.13;;;1.93;;
15449;SDS011;7826;49.784;9.934;2022-09-01T03:12:11;2.37;;;2.17;;
15449;SDS011;7826;49.784;9.934;2022-09-01T03:14:38;3.50;;;2.07;;
15449;SDS011;7826;49.784;9.934;2022-09-01T03:17:04;2.20;;;2.00;;
15449;SDS011;7826;49.784;9.934;2022-09-01T03:19:31;2.30;;;2.07;;
15449;SDS011;7826;49.784;9.934;2022-09-01T03:22:09;1.90;;;1.80;;
15449;SDS011;7826;49.784;9.934;2022-09-01T03:24:35;2.10;;;1.90;;
15449;SDS011;7826;49.784;9.934;2022-09-01T03:27:01;1.90;;;1.80;;
15449;SDS011;7826;49.784;9.934;2022-09-01T03:29:28;4.63;;;2.20;;
15449;SDS011;7826;49.784;9.934;2022-09-01T03:31:54;1.53;;;1.43;;
15449;SDS011;7826;49.784;9.934;2022-09-01T03:34:20;4.37;;;2.10;;
15449;SDS011;7826;49.784;9.934;2022-09-01T03:36:48;2.13;;;1.93;;
15449;SDS011;7826;49.784;9.934;2022-09-01T03:39:16;2.03;;;1.93;;
15449;SDS011;7826;49.784;9.934;2022-09-01T03:41:43;3.50;;;2.00;;
15449;SDS011;7826;49.784;9.934;2022-09-01T03:44:13;2.00;;;1.90;;
15449;SDS011;7826;49.784;9.934;2022-09-01T03:46:41;1.90;;;1.80;;
15449;SDS011;7826;49.784;9.934;2022-09-01T03:49:08;1.97;;;1.83;;
15449;SDS011;7826;49.784;9.934;2022-09-01T03:51:37;3.73;;;2.00;;
15449;SDS011;7826;49.784;9.934;2022-09-01T03:54:04;2.37;;;1.87;;
15449;SDS011;7826;49.784;9.934;2022-09-01T03:56:31;2.17;;;2.07;;
15449;SDS011;7826;49.784;9.934;2022-09-01T03:58:58;2.00;;;1.80;;
15449;SDS011;7826;49.784;9.934;2022-09-01T04:01:28;2.87;;;2.00;;
15449;SDS011;7826;49.784;9.934;2022-09-01T04:03:59;2.23;;;2.03;;
15449;SDS011;7826;49.784;9.934;2022-09-01T04:06:26;2.07;;;1.97;;
15449;SDS011;7826;49.784;9.934;2022-09-01T04:08:52;2.20;;;2.00;;
15449;SDS011;7826;49.784;9.934;2022-09-01T04:11:27;2.30;;;2.10;;
15449;SDS011;7826;49.784;9.934;2022-09-01T04:13:55;2.17;;;1.97;;
15449;SDS011;7826;49.784;9.934;2022-09-01T04:16:25;3.80;;;2.30;;
15449;SDS011;7826;49.784;9.934;2022-09-01T04:19:13;2.30;;;2.10;;
15449;SDS011;7826;49.784;9.934;2022-09-01T04:21:52;2.10;;;2.00;;
15449;SDS011;7826;49.784;9.934;2022-09-01T04:24:25;2.17;;;2.07;;
15449;SDS011;7826;49.784;9.934;2022-09-01T04:26:53;1.93;;;1.83;;
15449;SDS011;7826;49.784;9.934;2022-09-01T04:29:23;1.97;;;1.73;;
15449;SDS011;7826;49.784;9.934;2022-09-01T04:31:54;1.57;;;1.47;;
15449;SDS011;7826;49.784;9.934;2022-09-01T04:34:22;1.53;;;1.43;;
15449;SDS011;7826;49.784;9.934;2022-09-01T04:36:48;1.50;;;1.40;;
15449;SDS011;7826;49.784;9.934;2022-09-01T04:39:18;1.50;;;1.40;;
15449;SDS011;7826;49.784;9.934;2022-09-01T04:41:45;1.50;;;1.40;;
15449;SDS011;7826;49.784;9.934;2022-09-01T04:44:15;1.30;;;1.30;;
15449;SDS011;7826;49.784;9.934;2022-09-01T04:46:43;0.90;;;0.90;;
15449;SDS011;7826;49.784;9.934;2022-09-01T04:49:12;0.97;;;0.93;;
15449;SDS011;7826;49.784;9.934;2022-09-01T04:51:45;1.50;;;1.40;;
15449;SDS011;7826;49.784;9.934;2022-09-01T04:54:12;1.00;;;1.00;;
15449;SDS011;7826;49.784;9.934;2022-09-01T04:56:41;1.57;;;1.47;;
15449;SDS011;7826;49.784;9.934;2022-09-01T04:59:10;1.37;;;1.27;;
15449;SDS011;7826;49.784;9.934;2022-09-01T05:01:38;1.33;;;1.30;;
15449;SDS011;7826;49.784;9.934;2022-09-01T05:04:09;1.10;;;1.10;;
15449;SDS011;7826;49.784;9.934;2022-09-01T05:06:38;1.23;;;1.20;;
15449;SDS011;7826;49.784;9.934;2022-09-01T05:09:08;1.70;;;1.20;;
15449;SDS011;7826;49.784;9.934;2022-09-01T05:11:36;1.97;;;1.40;;
15449;SDS011;7826;49.784;9.934;2022-09-01T05:14:03;1.20;;;1.10;;
15449;SDS011;7826;49.784;9.934;2022-09-01T05:16:32;1.27;;;1.13;;
15449;SDS011;7826;49.784;9.934;2022-09-01T05:19:00;1.27;;;1.17;;
15449;SDS011;7826;49.784;9.934;2022-09-01T05:21:28;1.40;;;1.30;;
15449;SDS011;7826;49.784;9.934;2022-09-01T05:23:55;1.30;;;1.30;;
15449;SDS011;7826;49.784;9.934;2022-09-01T05:26:26;1.63;;;1.53;;
15449;SDS011;7826;49.784;9.934;2022-09-01T05:29:00;1.50;;;1.40;;
15449;SDS011;7826;49.784;9.934;2022-09-01T05:31:29;1.50;;;1.40;;
15449;SDS011;7826;49.784;9.934;2022-09-01T05:34:02;1.10;;;1.10;;
15449;SDS011;7826;49.784;9.934;2022-09-01T05:36:29;1.40;;;1.30;;
15449;SDS011;7826;49.784;9.934;2022-09-01T05:38:58;1.47;;;1.37;;
15449;SDS011;7826;49.784;9.934;2022-09-01T05:41:26;1.43;;;1.33;;
15449;SDS011;7826;49.784;9.934;2022-09-01T05:43:54;1.30;;;1.20;;
15449;SDS011;7826;49.784;9.934;2022-09-01T05:46:21;1.30;;;1.30;;
15449;SDS011;7826;49.784;9.934;2022-09-01T05:48:49;1.27;;;1.17;;
15449;SDS011;7826;49.784;9.934;2022-09-01T05:51:18;1.00;;;1.00;;
15449;SDS011;7826;49.784;9.934;2022-09-01T05:53:50;1.70;;;1.30;;
15449;SDS011;7826;49.784;9.934;2022-09-01T05:56:19;2.27;;;1.80;;
15449;SDS011;7826;49.784;9.934;2022-09-01T05:58:46;1.50;;;1.40;;
15449;SDS011;7826;49.784;9.934;2022-09-01T06:01:17;1.60;;;1.50;;
15449;SDS011;7826;49.784;9.934;2022-09-01T06:03:47;1.30;;;1.23;;
15449;SDS011;7826;49.784;9.934;2022-09-01T06:06:17;1.60;;;1.50;;
15449;SDS011;7826;49.784;9.934;2022-09-01T06:08:46;1.27;;;1.23;;
15449;SDS011;7826;49.784;9.934;2022-09-01T06:11:14;1.50;;;1.40;;
15449;SDS011;7826;49.784;9.934;2022-09-01T06:13:42;1.50;;;1.40;;
15449;SDS011;7826;49.784;9.934;2022-09-01T06:16:13;1.43;;;1.33;;
15449;SDS011;7826;49.784;9.934;2022-09-01T06:18:41;1.40;;;1.30;;
15449;SDS011;7826;49.784;9.934;2022-09-01T06:21:09;1.40;;;1.30;;
15449;SDS011;7826;49.784;9.934;2022-09-01T06:23:40;1.57;;;1.47;;
15449;SDS011;7826;49.784;9.934;2022-09-01T06:26:17;1.20;;;1.20;;
15449;SDS011;7826;49.784;9.934;2022-09-01T06:28:44;1.70;;;1.40;;
15449;SDS011;7826;49.784;9.934;2022-09-01T06:31:11;1.70;;;1.60;;
15449;SDS011;7826;49.784;9.934;2022-09-01T06:33:38;1.40;;;1.30;;
15449;SDS011;7826;49.784;9.934;2022-09-01T06:36:04;1.20;;;1.20;;
15449;SDS011;7826;49.784;9.934;2022-09-01T06:38:34;2.23;;;1.53;;
15449;SDS011;7826;49.784;9.934;2022-09-01T06:41:03;1.27;;;1.27;;
15449;SDS011;7826;49.784;9.934;2022-09-01T06:43:40;1.93;;;1.83;;
15449;SDS011;7826;49.784;9.934;2022-09-01T06:46:07;3.20;;;1.60;;
15449;SDS011;7826;49.784;9.934;2022-09-01T06:48:35;1.87;;;1.50;;
15449;SDS011;7826;49.784;9.934;2022-09-01T06:51:06;2.47;;;2.00;;
15449;SDS011;7826;49.784;9.934;2022-09-01T06:53:34;2.23;;;1.77;;
15449;SDS011;7826;49.784;9.934;2022-09-01T06:56:00;1.20;;;1.20;;
15449;SDS011;7826;49.784;9.934;2022-09-01T06:58:27;1.60;;;1.50;;
15449;SDS011;7826;49.784;9.934;2022-09-01T07:00:55;1.70;;;1.60;;
15449;SDS011;7826;49.784;9.934;2022-09-01T07:03:22;1.70;;;1.60;;
15449;SDS011;7826;49.784;9.934;2022-09-01T07:05:49;1.60;;;1.50;;
15449;SDS011;7826;49.784;9.934;2022-09-01T07:08:17;1.50;;;1.40;;
15449;SDS011;7826;49.784;9.934;2022-09-01T07:10:47;1.40;;;1.30;;
15449;SDS011;7826;49.784;9.934;2022-09-01T07:13:16;1.60;;;1.50;;
15449;SDS011;7826;49.784;9.934;2022-09-01T07:15:47;1.27;;;1.27;;
15449;SDS011;7826;49.784;9.934;2022-09-01T07:18:21;1.70;;;1.60;;
15449;SDS011;7826;49.784;9.934;2022-09-01T07:20:53;1.40;;;1.23;;
15449;SDS011;7826;49.784;9.934;2022-09-01T07:23:20;1.47;;;1.37;;
15449;SDS011;7826;49.784;9.934;2022-09-01T07:25:47;1.13;;;1.13;;
15449;SDS011;7826;49.784;9.934;2022-09-01T07:28:22;1.27;;;1.17;;
15449;SDS011;7826;49.784;9.934;2022-09-01T07:30:49;1.10;;;1.10;;
15449;SDS011;7826;49.784;9.934;2022-09-01T07:33:18;1.20;;;1.10;;
15449;SDS011;7826;49.784;9.934;2022-09-01T07:35:48;1.20;;;1.20;;
15449;SDS011;7826;49.784;9.934;2022-09-01T07:38:18;0.90;;;0.90;;
15449;SDS011;7826;49.784;9.934;2022-09-01T07:40:44;1.10;;;1.10;;
15449;SDS011;7826;49.784;9.934;2022-09-01T07:43:18;0.90;;;0.90;;
15449;SDS011;7826;49.784;9.934;2022-09-01T07:45:50;1.20;;;1.20;;
15449;SDS011;7826;49.784;9.934;2022-09-01T07:48:21;1.20;;;1.10;;
15449;SDS011;7826;49.784;9.934;2022-09-01T07:50:50;0.90;;;0.90;;
15449;SDS011;7826;49.784;9.934;2022-09-01T07:53:21;0.97;;;0.97;;
15449;SDS011;7826;49.784;9.934;2022-09-01T07:55:50;1.30;;;0.97;;
15449;SDS011;7826;49.784;9.934;2022-09-01T07:58:20;0.93;;;0.93;;
15449;SDS011;7826;49.784;9.934;2022-09-01T08:00:49;0.97;;;0.97;;
15449;SDS011;7826;49.784;9.934;2022-09-01T08:03:16;1.30;;;1.30;;
15449;SDS011;7826;49.784;9.934;2022-09-01T08:05:44;1.10;;;1.10;;
15449;SDS011;7826;49.784;9.934;2022-09-01T08:08:12;1.00;;;1.00;;
15449;SDS011;7826;49.784;9.934;2022-09-01T08:10:38;1.00;;;1.00;;
15449;SDS011;7826;49.784;9.934;2022-09-01T08:13:06;1.00;;;1.00;;
15449;SDS011;7826;49.784;9.934;2022-09-01T08:15:33;1.23;;;1.20;;
15449;SDS011;7826;49.784;9.934;2022-09-01T08:17:59;1.30;;;1.20;;
15449;SDS011;7826;49.784;9.934;2022-09-01T08:20:25;1.30;;;1.20;;
15449;SDS011;7826;49.784;9.934;2022-09-01T08:22:52;1.07;;;1.07;;
15449;SDS011;7826;49.784;9.934;2022-09-01T08:25:18;1.20;;;1.20;;
15449;SDS011;7826;49.784;9.934;2022-09-01T08:27:45;1.10;;;1.10;;
15449;SDS011;7826;49.784;9.934;2022-09-01T08:30:12;1.00;;;1.00;;
15449;SDS011;7826;49.784;9.934;2022-09-01T08:32:38;1.10;;;1.10;;
15449;SDS011;7826;49.784;9.934;2022-09-01T08:35:09;1.42;;;1.33;;
15449;SDS011;7826;49.784;9.934;2022-09-01T08:37:38;1.40;;;1.30;;
15449;SDS011;7826;49.784;9.934;2022-09-01T08:40:05;1.10;;;1.10;;
15449;SDS011;7826;49.784;9.934;2022-09-01T08:42:39;1.10;;;1.10;;
15449;SDS011;7826;49.784;9.934;2022-09-01T08:47:46;1.00;;;1.00;;
15449;SDS011;7826;49.784;9.934;2022-09-01T08:50:13;1.20;;;1.10;;
15449;SDS011;7826;49.784;9.934;2022-09-01T08:52:46;1.13;;;1.13;;
15449;SDS011;7826;49.784;9.934;2022-09-01T08:55:34;1.00;;;1.00;;
15449;SDS011;7826;49.784;9.934;2022-09-01T08:58:05;1.30;;;1.20;;
15449;SDS011;7826;49.784;9.934;2022-09-01T09:00:40;1.10;;;1.10;;
15449;SDS011;7826;49.784;9.934;2022-09-01T09:08:55;0.90;;;0.90;;
15449;SDS011;7826;49.784;9.934;2022-09-01T09:11:44;1.07;;;1.07;;
15449;SDS011;7826;49.784;9.934;2022-09-01T09:16:51;1.00;;;1.00;;
15449;SDS011;7826;49.784;9.934;2022-09-01T09:21:51;0.90;;;0.90;;
15449;SDS011;7826;49.784;9.934;2022-09-01T09:27:43;0.90;;;0.90;;
15449;SDS011;7826;49.784;9.934;2022-09-01T09:30:13;1.33;;;1.23;;
15449;SDS011;7826;49.784;9.934;2022-09-01T09:35:41;1.00;;;1.00;;
15449;SDS011;7826;49.784;9.934;2022-09-01T09:41:01;1.20;;;1.10;;
15449;SDS011;7826;49.784;9.934;2022-09-01T09:43:29;1.07;;;1.07;;
15449;SDS011;7826;49.784;9.934;2022-09-01T09:49:05;0.90;;;0.90;;
15449;SDS011;7826;49.784;9.934;2022-09-01T09:51:42;1.00;;;1.00;;
15449;SDS011;7826;49.784;9.934;2022-09-01T09:54:33;1.10;;;1.00;;
15449;SDS011;7826;49.784;9.934;2022-09-01T09:59:46;1.20;;;1.20;;
15449;SDS011;7826;49.784;9.934;2022-09-01T10:02:24;1.13;;;1.10;;
15449;SDS011;7826;49.784;9.934;2022-09-01T10:05:27;1.43;;;1.33;;
15449;SDS011;7826;49.784;9.934;2022-09-01T10:07:57;1.00;;;1.00;;
15449;SDS011;7826;49.784;9.934;2022-09-01T10:13:15;1.13;;;1.13;;
15449;SDS011;7826;49.784;9.934;2022-09-01T10:15:57;1.03;;;1.03;;
15449;SDS011;7826;49.784;9.934;2022-09-01T10:18:30;1.60;;;1.27;;
15449;SDS011;7826;49.784;9.934;2022-09-01T10:23:36;1.20;;;1.10;;
15449;SDS011;7826;49.784;9.934;2022-09-01T10:26:10;1.40;;;1.10;;
15449;SDS011;7826;49.784;9.934;2022-09-01T10:28:55;1.10;;;1.10;;
15449;SDS011;7826;49.784;9.934;2022-09-01T10:31:26;1.10;;;1.10;;
15449;SDS011;7826;49.784;9.934;2022-09-01T10:33:54;1.03;;;1.03;;
15449;SDS011;7826;49.784;9.934;2022-09-01T10:36:21;0.83;;;0.83;;
15449;SDS011;7826;49.784;9.934;2022-09-01T10:38:47;0.90;;;0.90;;
15449;SDS011;7826;49.784;9.934;2022-09-01T10:44:09;1.00;;;1.00;;
15449;SDS011;7826;49.784;9.934;2022-09-01T10:46:43;0.90;;;0.90;;
15449;SDS011;7826;49.784;9.934;2022-09-01T10:49:18;1.03;;;1.03;;
15449;SDS011;7826;49.784;9.934;2022-09-01T10:51:54;1.00;;;1.00;;
15449;SDS011;7826;49.784;9.934;2022-09-01T10:57:10;0.80;;;0.80;;
15449;SDS011;7826;49.784;9.934;2022-09-01T11:13:45;1.17;;;1.10;;
15449;SDS011;7826;49.784;9.934;2022-09-01T11:18:54;1.23;;;1.13;;
15449;SDS011;7826;49.784;9.934;2022-09-01T11:21:40;0.90;;;0.90;;
15449;SDS011;7826;49.784;9.934;2022-09-01T11:27:10;1.10;;;1.10;;
15449;SDS011;7826;49.784;9.934;2022-09-01T11:30:02;1.00;;;1.00;;
15449;SDS011;7826;49.784;9.934;2022-09-01T11:32:34;0.80;;;0.80;;
15449;SDS011;7826;49.784;9.934;2022-09-01T11:35:04;1.10;;;1.10;;
15449;SDS011;7826;49.784;9.934;2022-09-01T11:37:39;0.80;;;0.80;;
15449;SDS011;7826;49.784;9.934;2022-09-01T11:40:06;0.90;;;0.90;;
15449;SDS011;7826;49.784;9.934;2022-09-01T11:45:06;1.00;;;1.00;;
15449;SDS011;7826;49.784;9.934;2022-09-01T11:47:44;1.13;;;0.90;;
15449;SDS011;7826;49.784;9.934;2022-09-01T11:52:41;1.00;;;1.00;;
15449;SDS011;7826;49.784;9.934;2022-09-01T11:55:17;0.70;;;0.70;;
15449;SDS011;7826;49.784;9.934;2022-09-01T11:57:57;1.10;;;0.90;;
15449;SDS011;7826;49.784;9.934;2022-09-01T12:00:42;0.90;;;0.90;;
15449;SDS011;7826;49.784;9.934;2022-09-01T12:03:19;1.23;;;1.13;;
15449;SDS011;7826;49.784;9.934;2022-09-01T12:05:51;0.70;;;0.70;;
15449;SDS011;7826;49.784;9.934;2022-09-01T12:08:24;1.00;;;1.00;;
15449;SDS011;7826;49.784;9.934;2022-09-01T12:11:03;1.50;;;1.00;;
15449;SDS011;7826;49.784;9.934;2022-09-01T12:13:38;1.27;;;1.10;;
15449;SDS011;7826;49.784;9.934;2022-09-01T12:16:07;0.90;;;0.90;;
15449;SDS011;7826;49.784;9.934;2022-09-01T12:18:36;0.83;;;0.83;;
15449;SDS011;7826;49.784;9.934;2022-09-01T12:21:21;0.83;;;0.83;;
15449;SDS011;7826;49.784;9.934;2022-09-01T12:23:51;1.00;;;1.00;;
15449;SDS011;7826;49.784;9.934;2022-09-01T12:26:19;1.00;;;1.00;;
15449;SDS011;7826;49.784;9.934;2022-09-01T12:28:50;0.93;;;0.93;;
15449;SDS011;7826;49.784;9.934;2022-09-01T12:31:18;0.77;;;0.77;;
15449;SDS011;7826;49.784;9.934;2022-09-01T12:33:48;0.83;;;0.83;;
15449;SDS011;7826;49.784;9.934;2022-09-01T12:38:58;0.87;;;0.87;;
15449;SDS011;7826;49.784;9.934;2022-09-01T12:41:43;0.70;;;0.70;;
15449;SDS011;7826;49.784;9.934;2022-09-01T12:47:08;0.90;;;0.90;;
15449;SDS011;7826;49.784;9.934;2022-09-01T12:49:40;3.37;;;1.00;;
15449;SDS011;7826;49.784;9.934;2022-09-01T12:54:45;0.77;;;0.77;;
15449;SDS011;7826;49.784;9.934;2022-09-01T12:57:47;1.00;;;1.00;;
15449;SDS011;7826;49.784;9.934;2022-09-01T13:00:14;0.83;;;0.83;;
15449;SDS011;7826;49.784;9.934;2022-09-01T13:08:01;1.00;;;1.00;;
15449;SDS011;7826;49.784;9.934;2022-09-01T13:10:32;1.30;;;1.20;;
15449;SDS011;7826;49.784;9.934;2022-09-01T13:13:01;1.20;;;1.20;;
15449;SDS011;7826;49.784;9.934;2022-09-01T13:15:27;1.03;;;1.03;;
15449;SDS011;7826;49.784;9.934;2022-09-01T13:17:55;1.17;;;1.17;;
15449;SDS011;7826;49.784;9.934;2022-09-01T13:20:22;0.80;;;0.80;;
15449;SDS011;7826;49.784;9.934;2022-09-01T13:22:48;1.00;;;1.00;;
15449;SDS011;7826;49.784;9.934;2022-09-01T13:25:17;0.87;;;0.87;;
15449;SDS011;7826;49.784;9.934;2022-09-01T13:27:45;0.93;;;0.93;;
15449;SDS011;7826;49.784;9.934;2022-09-01T13:30:13;0.80;;;0.80;;
15449;SDS011;7826;49.784;9.934;2022-09-01T13:32:41;1.00;;;1.00;;
15449;SDS011;7826;49.784;9.934;2022-09-01T13:35:09;0.90;;;0.90;;
15449;SDS011;7826;49.784;9.934;2022-09-01T13:37:37;1.00;;;1.00;;
15449;SDS011;7826;49.784;9.934;2022-09-01T13:40:04;1.00;;;1.00;;
15449;SDS011;7826;49.784;9.934;2022-09-01T13:42:32;1.00;;;1.00;;
15449;SDS011;7826;49.784;9.934;2022-09-01T13:44:59;1.00;;;1.00;;
15449;SDS011;7826;49.784;9.934;2022-09-01T13:47:26;0.90;;;0.90;;
15449;SDS011;7826;49.784;9.934;2022-09-01T13:49:52;0.90;;;0.90;;
15449;SDS011;7826;49.784;9.934;2022-09-01T13:52:18;1.30;;;1.20;;
15449;SDS011;7826;49.784;9.934;2022-09-01T13:54:46;0.93;;;0.90;;
15449;SDS011;7826;49.784;9.934;2022-09-01T13:57:12;1.00;;;1.00;;
15449;SDS011;7826;49.784;9.934;2022-09-01T13:59:40;0.90;;;0.90;;
15449;SDS011;7826;49.784;9.934;2022-09-01T14:02:06;0.80;;;0.80;;
15449;SDS011;7826;49.784;9.934;2022-09-01T14:04:33;0.80;;;0.80;;
15449;SDS011;7826;49.784;9.934;2022-09-01T14:06:59;0.73;;;0.73;;
15449;SDS011;7826;49.784;9.934;2022-09-01T14:09:25;0.90;;;0.90;;
15449;SDS011;7826;49.784;9.934;2022-09-01T14:11:52;1.20;;;1.10;;
15449;SDS011;7826;49.784;9.934;2022-09-01T14:14:19;1.20;;;1.10;;
15449;SDS011;7826;49.784;9.934;2022-09-01T14:16:46;1.13;;;1.10;;
15449;SDS011;7826;49.784;9.934;2022-09-01T14:19:12;1.10;;;1.00;;
15449;SDS011;7826;49.784;9.934;2022-09-01T14:21:38;1.30;;;1.20;;
15449;SDS011;7826;49.784;9.934;2022-09-01T14:24:04;0.80;;;0.80;;
15449;SDS011;7826;49.784;9.934;2022-09-01T14:26:31;0.70;;;0.70;;
15449;SDS011;7826;49.784;9.934;2022-09-01T14:28:58;1.00;;;1.00;;
15449;SDS011;7826;49.784;9.934;2022-09-01T14:31:27;1.30;;;1.20;;
15449;SDS011;7826;49.784;9.934;2022-09-01T14:33:54;1.20;;;1.10;;
15449;SDS011;7826;49.784;9.934;2022-09-01T14:36:22;0.90;;;0.90;;
15449;SDS011;7826;49.784;9.934;2022-09-01T14:38:50;1.00;;;1.00;;
15449;SDS011;7826;49.784;9.934;2022-09-01T14:41:19;1.30;;;1.20;;
15449;SDS011;7826;49.784;9.934;2022-09-01T14:43:49;1.00;;;1.00;;
15449;SDS011;7826;49.784;9.934;2022-09-01T14:46:16;1.10;;;1.10;;
15449;SDS011;7826;49.784;9.934;2022-09-01T14:48:44;0.90;;;0.90;;
15449;SDS011;7826;49.784;9.934;2022-09-01T14:51:21;0.80;;;0.80;;
15449;SDS011;7826;49.784;9.934;2022-09-01T14:53:49;1.37;;;1.10;;
15449;SDS011;7826;49.784;9.934;2022-09-01T14:56:17;1.00;;;1.00;;
15449;SDS011;7826;49.784;9.934;2022-09-01T14:58:47;1.10;;;1.10;;
15449;SDS011;7826;49.784;9.934;2022-09-01T15:01:15;0.80;;;0.80;;
15449;SDS011;7826;49.784;9.934;2022-09-01T15:03:43;0.80;;;0.80;;
15449;SDS011;7826;49.784;9.934;2022-09-01T15:06:14;0.90;;;0.90;;
15449;SDS011;7826;49.784;9.934;2022-09-01T15:08:41;0.73;;;0.73;;
15449;SDS011;7826;49.784;9.934;2022-09-01T15:11:08;0.80;;;0.80;;
15449;SDS011;7826;49.784;9.934;2022-09-01T15:13:36;1.00;;;1.00;;
15449;SDS011;7826;49.784;9.934;2022-09-01T15:16:03;0.90;;;0.90;;
15449;SDS011;7826;49.784;9.934;2022-09-01T15:18:30;1.10;;;1.10;;
15449;SDS011;7826;49.784;9.934;2022-09-01T15:20:56;1.17;;;1.17;;
15449;SDS011;7826;49.784;9.934;2022-09-01T15:23:23;0.90;;;0.90;;
15449;SDS011;7826;49.784;9.934;2022-09-01T15:25:52;1.10;;;1.10;;
15449;SDS011;7826;49.784;9.934;2022-09-01T15:28:20;0.90;;;0.90;;
15449;SDS011;7826;49.784;9.934;2022-09-01T15:30:47;0.80;;;0.80;;
15449;SDS011;7826;49.784;9.934;2022-09-01T15:33:14;0.90;;;0.90;;
15449;SDS011;7826;49.784;9.934;2022-09-01T15:35:41;0.90;;;0.90;;
15449;SDS011;7826;49.784;9.934;2022-09-01T15:38:13;0.80;;;0.80;;
15449;SDS011;7826;49.784;9.934;2022-09-01T15:40:40;0.90;;;0.90;;
15449;SDS011;7826;49.784;9.934;2022-09-01T15:43:08;0.90;;;0.90;;
15449;SDS011;7826;49.784;9.934;2022-09-01T15:45:36;0.80;;;0.80;;
15449;SDS011;7826;49.784;9.934;2022-09-01T15:48:03;0.80;;;0.80;;
15449;SDS011;7826;49.784;9.934;2022-09-01T15:50:30;0.93;;;0.93;;
15449;SDS011;7826;49.784;9.934;2022-09-01T15:52:58;1.07;;;1.07;;
15449;SDS011;7826;49.784;9.934;2022-09-01T15:55:27;1.30;;;1.10;;
15449;SDS011;7826;49.784;9.934;2022-09-01T15:58:06;0.90;;;0.90;;
15449;SDS011;7826;49.784;9.934;2022-09-01T16:00:33;0.97;;;0.97;;
15449;SDS011;7826;49.784;9.934;2022-09-01T16:03:00;1.03;;;0.97;;
15449;SDS011;7826;49.784;9.934;2022-09-01T16:05:30;0.87;;;0.87;;
15449;SDS011;7826;49.784;9.934;2022-09-01T16:07:58;1.10;;;1.10;;
15449;SDS011;7826;49.784;9.934;2022-09-01T16:10:26;0.90;;;0.90;;
15449;SDS011;7826;49.784;9.934;2022-09-01T16:12:54;0.80;;;0.80;;
15449;SDS011;7826;49.784;9.934;2022-09-01T16:15:21;0.80;;;0.80;;
15449;SDS011;7826;49.784;9.934;2022-09-01T16:21:10;0.90;;;0.90;;
15449;SDS011;7826;49.784;9.934;2022-09-01T16:23:48;0.90;;;0.90;;
15449;SDS011;7826;49.784;9.934;2022-09-01T16:26:18;1.30;;;1.20;;
15449;SDS011;7826;49.784;9.934;2022-09-01T16:28:47;0.90;;;0.90;;
15449;SDS011;7826;49.784;9.934;2022-09-01T16:31:16;1.00;;;1.00;;
15449;SDS011;7826;49.784;9.934;2022-09-01T16:33:49;1.10;;;1.10;;
15449;SDS011;7826;49.784;9.934;2022-09-01T17:01:07;0.93;;;0.93;;
15449;SDS011;7826;49.784;9.934;2022-09-01T17:09:01;1.13;;;1.03;;